createdAt,value
2022-10-12T00:04:50.368Z,99251.72
2022-10-12T00:09:52.464Z,99249.41
2022-10-12T00:14:54.329Z,99246.94
2022-10-12T00:19:56.182Z,99251.72
2022-10-12T00:24:58.022Z,99242.81
2022-10-12T00:29:59.911Z,99243.09
2022-10-12T00:35:01.954Z,99247.72
2022-10-12T00:40:04.417Z,99247.19
2022-10-12T00:45:06.913Z,99238.03
2022-10-12T00:50:14.890Z,99239.94
2022-10-12T00:55:19.197Z,99243.47
2022-10-12T01:00:22.678Z,99238.69
2022-10-12T01:05:25.202Z,99238.97
2022-10-12T01:10:27.087Z,99234.88
2022-10-12T01:15:34.501Z,99235.81
2022-10-12T01:20:42.484Z,99230.91
2022-10-12T01:26:03.115Z,99226.66
2022-10-12T01:31:20.922Z,99224.47
2022-10-12T01:36:33.226Z,99227.47
2022-10-12T01:41:39.897Z,99225.81
2022-10-12T01:46:43.881Z,99229.50
2022-10-12T01:52:07.389Z,99230.31
2022-10-12T01:57:15.676Z,99222.94
2022-10-12T02:02:40.184Z,99223.34
2022-10-12T02:08:08.523Z,99212.41
2022-10-12T02:13:13.742Z,99228.22
2022-10-12T02:18:19.035Z,99209.66
2022-10-12T02:23:24.562Z,99216.06
2022-10-12T02:28:29.873Z,99223.25
2022-10-12T02:33:37.503Z,99227.06
2022-10-12T02:38:53.013Z,99222.97
2022-10-12T02:43:59.898Z,99225.69
2022-10-12T02:49:04.540Z,99214.91
2022-10-12T02:54:06.682Z,99218.56
2022-10-12T02:59:08.506Z,99218.81
2022-10-12T03:04:10.557Z,99215.53
2022-10-12T03:09:12.482Z,99222.63
2022-10-12T03:14:15.392Z,99215.09
2022-10-12T03:19:17.220Z,99213.59
2022-10-12T03:24:19.308Z,99214.56
2022-10-12T03:29:21.135Z,99214.81
2022-10-12T03:34:23.076Z,99217.78
2022-10-12T03:39:24.983Z,99215.44
2022-10-12T03:44:27.052Z,99213.94
2022-10-12T03:49:29.232Z,99217.59
2022-10-12T03:54:31.056Z,99215.13
2022-10-12T03:59:33.126Z,99218.53
2022-10-12T04:04:35.602Z,99206.44
2022-10-12T04:09:37.470Z,99202.88
2022-10-12T04:14:39.392Z,99198.41
2022-10-12T04:19:41.302Z,99209.56
2022-10-12T04:24:43.958Z,99206.28
2022-10-12T04:29:45.894Z,99205.59
2022-10-12T04:34:47.902Z,99194.56
2022-10-12T04:39:50.010Z,99205.88
2022-10-12T04:44:51.987Z,99200.00
2022-10-12T04:49:53.807Z,99195.06
2022-10-12T04:54:55.719Z,99203.09
2022-10-12T04:59:57.661Z,99200.63
2022-10-12T05:04:59.612Z,99208.53
2022-10-12T05:10:01.485Z,99206.88
2022-10-12T05:15:03.504Z,99206.88
2022-10-12T05:20:06.084Z,99213.25
2022-10-12T05:25:08.893Z,99203.41
2022-10-12T05:30:11.380Z,99197.53
2022-10-12T05:35:13.243Z,99210.47
2022-10-12T05:40:15.269Z,99206.94
2022-10-12T05:45:17.228Z,99204.22
2022-10-12T05:50:19.222Z,99201.38
2022-10-12T05:55:21.220Z,99206.19
2022-10-12T06:00:23.302Z,99205.13
2022-10-12T06:05:25.770Z,99214.25
2022-10-12T06:10:29.952Z,99214.81
2022-10-12T06:15:32.283Z,99221.13
2022-10-12T06:20:34.384Z,99219.94
2022-10-12T06:25:36.291Z,99216.13
2022-10-12T06:30:38.426Z,99213.84
2022-10-12T06:35:40.200Z,99224.25
2022-10-12T06:40:42.501Z,99219.50
2022-10-12T06:45:44.353Z,99226.91
2022-10-12T06:50:47.281Z,99228.41
2022-10-12T06:55:49.472Z,99247.78
2022-10-12T07:00:52.451Z,99239.50
2022-10-12T07:05:54.517Z,99240.75
2022-10-12T07:11:05.202Z,99235.84
2022-10-12T07:16:08.190Z,99236.72
2022-10-12T07:21:10.136Z,99235.78
2022-10-12T07:26:12.192Z,99232.00
2022-10-12T07:31:14.976Z,99237.34
2022-10-12T07:36:21.558Z,99224.41
2022-10-12T07:41:24.022Z,99218.72
2022-10-12T07:46:26.115Z,99216.53
2022-10-12T07:51:27.988Z,99212.13
2022-10-12T07:56:31.688Z,99215.78
2022-10-12T08:01:34.897Z,99211.34
2022-10-12T08:06:37.183Z,99210.63
2022-10-12T08:11:40.816Z,99218.91
2022-10-12T08:16:44.310Z,99216.53
2022-10-12T08:21:46.384Z,99215.75
2022-10-12T08:26:48.391Z,99211.84
2022-10-12T08:31:51.560Z,99205.75
2022-10-12T08:36:53.600Z,99205.91
2022-10-12T08:42:02.058Z,99204.41
2022-10-12T08:47:38.877Z,99206.50
2022-10-12T08:52:56.979Z,99203.66
2022-10-12T08:57:59.010Z,99203.25
2022-10-12T09:03:03.822Z,99189.19
2022-10-12T09:08:23.943Z,99187.94
2022-10-12T09:13:28.800Z,99189.94
2022-10-12T09:18:37.072Z,99186.72
2022-10-12T09:23:42.726Z,99197.03
2022-10-12T09:29:20.392Z,99188.59
2022-10-12T09:34:24.675Z,99182.91
2022-10-12T09:39:34.010Z,99192.72
2022-10-12T09:44:40.337Z,99185.28
2022-10-12T09:49:43.385Z,99187.09
2022-10-12T09:55:16.361Z,99185.84
2022-10-12T10:00:36.090Z,99182.09
2022-10-12T10:05:39.203Z,99175.09
2022-10-12T10:10:56.511Z,99178.22
2022-10-12T10:16:05.940Z,99167.81
2022-10-12T10:21:13.272Z,99164.25
2022-10-12T10:31:29.631Z,99154.81
2022-10-12T10:36:34.697Z,99162.66
2022-10-12T10:41:39.684Z,99156.78
2022-10-12T10:46:45.160Z,99155.31
2022-10-12T10:51:51.704Z,99147.84
2022-10-12T10:56:59.136Z,99154.19
2022-10-12T11:02:10.135Z,99142.44
2022-10-12T11:07:42.609Z,99148.66
2022-10-12T11:12:49.885Z,99141.13
2022-10-12T11:18:03.654Z,99135.25
2022-10-12T11:23:19.391Z,99128.91
2022-10-12T11:28:22.886Z,99118.59
2022-10-12T11:33:38.615Z,99113.56
2022-10-12T11:38:44.920Z,99115.69
2022-10-12T11:43:52.883Z,99107.00
2022-10-12T11:49:29.321Z,99099.81
2022-10-12T11:54:40.148Z,99095.41
2022-10-12T11:59:41.906Z,99100.31
2022-10-12T12:04:47.207Z,99095.72
2022-10-12T12:09:51.019Z,99087.88
2022-10-12T12:14:53.414Z,99074.50
2022-10-12T12:20:01.068Z,99067.31
2022-10-12T12:25:10.806Z,99072.69
2022-10-12T12:30:18.361Z,99069.09
2022-10-12T12:35:32.231Z,99065.50
2022-10-12T12:40:35.322Z,99067.31
2022-10-12T12:45:56.543Z,99063.06
2022-10-12T12:51:01.799Z,99056.84
2022-10-12T12:56:24.122Z,99051.47
2022-10-12T13:02:11.037Z,99045.06
2022-10-12T13:07:15.583Z,99051.94
2022-10-12T13:12:35.577Z,99044.91
2022-10-12T13:17:59.491Z,99040.31
2022-10-12T13:23:06.259Z,99036.72
2022-10-12T13:28:41.296Z,99025.13
2022-10-12T13:33:56.617Z,99026.75
2022-10-12T13:39:20.746Z,99025.25
2022-10-12T13:44:31.061Z,99022.81
2022-10-12T13:49:43.688Z,99015.97
2022-10-12T13:54:48.748Z,99004.69
2022-10-12T13:59:57.723Z,99001.91
2022-10-12T14:05:02.698Z,99001.91
2022-10-12T14:10:16.471Z,98993.09
2022-10-12T14:15:19.795Z,98984.25
2022-10-12T14:20:31.131Z,98993.56
2022-10-12T14:25:33.369Z,98987.53
2022-10-12T14:30:40.950Z,98982.28
2022-10-12T14:35:47.966Z,98977.06
2022-10-12T14:40:49.804Z,98983.44
2022-10-12T14:45:52.156Z,98969.75
2022-10-12T14:50:54.362Z,98970.09
2022-10-12T14:55:56.284Z,98963.56
2022-10-12T15:00:58.440Z,98959.50
2022-10-12T15:06:00.423Z,98964.28
2022-10-12T15:11:02.263Z,98958.91
2022-10-12T15:16:10.325Z,98959.25
2022-10-12T15:21:12.221Z,98952.09
2022-10-12T15:26:16.781Z,98951.00
2022-10-12T15:31:19.302Z,98950.84
2022-10-12T15:36:21.252Z,98954.13
2022-10-12T15:41:27.178Z,98951.72
2022-10-12T15:46:29.063Z,98951.91
2022-10-12T15:51:34.411Z,98957.31
2022-10-12T15:56:36.861Z,98953.91
2022-10-12T16:01:40.001Z,98952.97
2022-10-12T16:06:41.945Z,98953.16
2022-10-12T16:11:43.831Z,98953.97
2022-10-12T16:16:45.752Z,98949.75
2022-10-12T16:21:47.596Z,98951.38
2022-10-12T16:26:50.064Z,98955.16
2022-10-12T16:31:51.984Z,98958.56
2022-10-12T16:36:53.956Z,98960.69
2022-10-12T16:41:55.890Z,98965.25
2022-10-12T16:46:58.351Z,98959.19
2022-10-12T16:52:00.336Z,98958.19
2022-10-12T16:57:02.330Z,98965.84
2022-10-12T17:02:05.200Z,98965.66
2022-10-12T17:07:07.241Z,98954.25
2022-10-12T17:12:09.371Z,98965.31
2022-10-12T17:17:11.394Z,98961.38
2022-10-12T17:22:14.561Z,98966.09
2022-10-12T17:27:17.067Z,98962.19
2022-10-12T17:32:19.363Z,98965.91
2022-10-12T17:37:22.047Z,98966.06
2022-10-12T17:42:24.915Z,98967.22
2022-10-12T17:47:26.738Z,98965.06
2022-10-12T17:52:28.615Z,98959.38
2022-10-12T17:57:30.513Z,98961.63
2022-10-12T18:02:32.334Z,98953.47
2022-10-12T18:07:34.171Z,98957.69
2022-10-12T18:12:36.021Z,98959.13
2022-10-12T18:17:37.903Z,98956.16
2022-10-12T18:22:39.686Z,98954.03
2022-10-12T18:27:42.243Z,98955.81
2022-10-12T18:32:44.332Z,98951.44
2022-10-12T18:37:46.167Z,98952.41
2022-10-12T18:42:48.152Z,98949.66
2022-10-12T18:47:50.084Z,98950.47
2022-10-12T18:52:54.682Z,98954.03
2022-10-12T18:57:56.502Z,98947.50
2022-10-12T19:02:58.577Z,98940.19
2022-10-12T19:08:00.382Z,98944.22
2022-10-12T19:13:02.212Z,98943.84
2022-10-12T19:18:04.945Z,98944.84
2022-10-12T19:23:06.811Z,98944.69
2022-10-12T19:28:08.662Z,98942.75
2022-10-12T19:33:10.636Z,98933.16
2022-10-12T19:38:12.927Z,98938.03
2022-10-12T19:43:14.745Z,98925.03
2022-10-12T19:48:17.911Z,98926.66
2022-10-12T19:53:19.736Z,98918.03
2022-10-12T19:58:21.706Z,98916.41
2022-10-12T20:03:23.423Z,98918.88
2022-10-12T20:08:25.494Z,98916.25
2022-10-12T20:13:29.351Z,98922.13
2022-10-12T20:18:31.897Z,98921.31
2022-10-12T20:23:38.898Z,98922.94
2022-10-12T20:28:41.785Z,98923.25
2022-10-12T20:33:44.340Z,98919.16
2022-10-12T20:38:46.062Z,98920.16
2022-10-12T20:43:48.397Z,98925.50
2022-10-12T20:48:52.537Z,98917.84
2022-10-12T20:54:01.596Z,98913.78
2022-10-12T20:59:03.451Z,98913.13
2022-10-12T21:04:05.267Z,98914.41
2022-10-12T21:09:07.355Z,98902.50
2022-10-12T21:14:12.232Z,98898.28
2022-10-12T21:19:15.943Z,98898.28
2022-10-12T21:24:18.386Z,98896.97
2022-10-12T21:29:20.543Z,98896.97
2022-10-12T21:34:22.577Z,98900.53
2022-10-12T21:39:24.411Z,98897.94
2022-10-12T21:44:26.241Z,98894.81
2022-10-12T21:49:28.070Z,98895.91
2022-10-12T21:54:29.873Z,98892.97
2022-10-12T21:59:31.690Z,98897.66
2022-10-12T22:04:33.481Z,98901.69
2022-10-12T22:09:35.679Z,98900.22
2022-10-12T22:14:37.467Z,98897.25
2022-10-12T22:19:39.421Z,98894.31
2022-10-12T22:24:41.213Z,98897.19
2022-10-12T22:29:43.109Z,98892.16
2022-10-12T22:34:44.949Z,98886.66
2022-10-12T22:39:47.012Z,98886.34
2022-10-12T22:44:48.795Z,98874.84
2022-10-12T22:49:50.556Z,98886.03
2022-10-12T22:54:52.654Z,98880.84
2022-10-12T22:59:54.491Z,98870.44
2022-10-12T23:04:56.513Z,98863.63
2022-10-12T23:09:58.278Z,98860.38
2022-10-12T23:15:00.162Z,98862.66
2022-10-12T23:20:02.116Z,98872.28
2022-10-12T23:25:04.163Z,98866.97
2022-10-12T23:30:06.648Z,98861.53
2022-10-12T23:35:08.544Z,98866.16
2022-10-12T23:40:10.964Z,98858.06
2022-10-12T23:45:12.741Z,98856.97
2022-10-12T23:50:14.647Z,98859.75
2022-10-12T23:55:16.615Z,98854.72
